sensor_id;sensor_type;location;lat;lon;timestamp;temperature;humidity
51500;DHT22;39101;53.478;6.158;2024-01-06T00:02:16;2.30;99.90
51500;DHT22;39101;53.478;6.158;2024-01-06T00:04:42;2.30;99.90
51500;DHT22;39101;53.478;6.158;2024-01-06T00:07:07;2.30;99.90
51500;DHT22;39101;53.478;6.158;2024-01-06T00:09:33;2.50;99.90
51500;DHT22;39101;53.478;6.158;2024-01-06T00:11:58;2.30;99.90
51500;DHT22;39101;53.478;6.158;2024-01-06T00:14:24;2.40;99.90
51500;DHT22;39101;53.478;6.158;2024-01-06T00:16:50;2.30;99.90
51500;DHT22;39101;53.478;6.158;2024-01-06T00:19:16;2.40;99.90
51500;DHT22;39101;53.478;6.158;2024-01-06T00:21:43;2.50;99.90
51500;DHT22;39101;53.478;6.158;2024-01-06T00:24:09;2.50;99.90
51500;DHT22;39101;53.478;6.158;2024-01-06T00:26:34;2.30;99.90
51500;DHT22;39101;53.478;6.158;2024-01-06T00:29:00;2.40;99.90
51500;DHT22;39101;53.478;6.158;2024-01-06T00:31:26;2.50;99.90
51500;DHT22;39101;53.478;6.158;2024-01-06T00:33:51;2.60;99.90
51500;DHT22;39101;53.478;6.158;2024-01-06T00:36:17;2.40;99.90
51500;DHT22;39101;53.478;6.158;2024-01-06T00:38:43;2.40;99.90
51500;DHT22;39101;53.478;6.158;2024-01-06T00:41:08;2.60;99.90
51500;DHT22;39101;53.478;6.158;2024-01-06T00:43:34;2.60;99.90
51500;DHT22;39101;53.478;6.158;2024-01-06T00:46:00;2.60;99.90
51500;DHT22;39101;53.478;6.158;2024-01-06T00:48:26;2.40;99.90
51500;DHT22;39101;53.478;6.158;2024-01-06T00:50:51;2.80;99.90
51500;DHT22;39101;53.478;6.158;2024-01-06T00:53:17;2.70;99.90
51500;DHT22;39101;53.478;6.158;2024-01-06T00:55:43;2.70;99.90
51500;DHT22;39101;53.478;6.158;2024-01-06T00:58:08;2.70;99.90
51500;DHT22;39101;53.478;6.158;2024-01-06T01:00:34;2.50;99.90
51500;DHT22;39101;53.478;6.158;2024-01-06T01:03:00;2.80;99.90
51500;DHT22;39101;53.478;6.158;2024-01-06T01:05:25;2.70;99.90
51500;DHT22;39101;53.478;6.158;2024-01-06T01:07:51;2.50;99.90
51500;DHT22;39101;53.478;6.158;2024-01-06T01:10:17;2.40;99.90
51500;DHT22;39101;53.478;6.158;2024-01-06T01:12:43;2.60;99.90
51500;DHT22;39101;53.478;6.158;2024-01-06T01:15:08;2.70;99.90
51500;DHT22;39101;53.478;6.158;2024-01-06T01:17:34;2.80;99.90
51500;DHT22;39101;53.478;6.158;2024-01-06T01:20:00;2.50;99.90
51500;DHT22;39101;53.478;6.158;2024-01-06T01:22:25;2.50;99.90
51500;DHT22;39101;53.478;6.158;2024-01-06T01:24:51;2.70;99.90
51500;DHT22;39101;53.478;6.158;2024-01-06T01:27:17;2.40;99.90
51500;DHT22;39101;53.478;6.158;2024-01-06T01:29:42;2.70;99.90
51500;DHT22;39101;53.478;6.158;2024-01-06T01:32:08;2.40;99.90
51500;DHT22;39101;53.478;6.158;2024-01-06T01:34:34;2.50;99.90
51500;DHT22;39101;53.478;6.158;2024-01-06T01:37:00;2.80;99.90
51500;DHT22;39101;53.478;6.158;2024-01-06T01:39:26;2.50;99.90
51500;DHT22;39101;53.478;6.158;2024-01-06T01:41:51;2.70;99.90
51500;DHT22;39101;53.478;6.158;2024-01-06T01:44:17;2.50;99.90
51500;DHT22;39101;53.478;6.158;2024-01-06T01:46:43;2.80;99.90
51500;DHT22;39101;53.478;6.158;2024-01-06T01:49:08;2.60;99.90
51500;DHT22;39101;53.478;6.158;2024-01-06T01:51:35;2.80;99.90
51500;DHT22;39101;53.478;6.158;2024-01-06T01:54:02;2.50;99.90
51500;DHT22;39101;53.478;6.158;2024-01-06T01:56:30;2.50;99.90
51500;DHT22;39101;53.478;6.158;2024-01-06T01:59:01;2.90;99.90
51500;DHT22;39101;53.478;6.158;2024-01-06T02:01:33;2.40;99.90
51500;DHT22;39101;53.478;6.158;2024-01-06T02:03:59;2.60;99.90
51500;DHT22;39101;53.478;6.158;2024-01-06T02:06:24;2.60;99.90
51500;DHT22;39101;53.478;6.158;2024-01-06T02:08:50;2.70;99.90
51500;DHT22;39101;53.478;6.158;2024-01-06T02:11:16;2.80;99.90
51500;DHT22;39101;53.478;6.158;2024-01-06T02:13:42;2.70;99.90
51500;DHT22;39101;53.478;6.158;2024-01-06T02:16:07;2.60;99.90
51500;DHT22;39101;53.478;6.158;2024-01-06T02:18:33;2.60;99.90
51500;DHT22;39101;53.478;6.158;2024-01-06T02:21:01;2.80;99.90
51500;DHT22;39101;53.478;6.158;2024-01-06T02:23:30;2.70;99.90
51500;DHT22;39101;53.478;6.158;2024-01-06T02:25:56;2.50;99.90
51500;DHT22;39101;53.478;6.158;2024-01-06T02:28:22;2.60;99.90
51500;DHT22;39101;53.478;6.158;2024-01-06T02:30:49;2.40;99.90
51500;DHT22;39101;53.478;6.158;2024-01-06T02:33:15;2.60;99.90
51500;DHT22;39101;53.478;6.158;2024-01-06T02:35:40;2.50;99.90
51500;DHT22;39101;53.478;6.158;2024-01-06T02:38:06;2.60;99.90
51500;DHT22;39101;53.478;6.158;2024-01-06T02:40:32;2.50;99.90
51500;DHT22;39101;53.478;6.158;2024-01-06T02:42:59;2.70;99.90
51500;DHT22;39101;53.478;6.158;2024-01-06T02:45:24;2.70;99.90
51500;DHT22;39101;53.478;6.158;2024-01-06T02:47:50;2.60;99.90
51500;DHT22;39101;53.478;6.158;2024-01-06T02:50:16;2.50;99.90
51500;DHT22;39101;53.478;6.158;2024-01-06T02:52:42;2.50;99.90
51500;DHT22;39101;53.478;6.158;2024-01-06T02:55:08;2.70;99.90
51500;DHT22;39101;53.478;6.158;2024-01-06T02:57:34;2.60;99.90
51500;DHT22;39101;53.478;6.158;2024-01-06T03:00:01;2.80;99.90
51500;DHT22;39101;53.478;6.158;2024-01-06T03:02:26;2.70;99.90
51500;DHT22;39101;53.478;6.158;2024-01-06T03:04:52;2.60;99.90
51500;DHT22;39101;53.478;6.158;2024-01-06T03:07:18;2.80;99.90
51500;DHT22;39101;53.478;6.158;2024-01-06T03:09:43;2.70;99.90
51500;DHT22;39101;53.478;6.158;2024-01-06T03:12:09;2.60;99.90
51500;DHT22;39101;53.478;6.158;2024-01-06T03:14:35;2.50;99.90
51500;DHT22;39101;53.478;6.158;2024-01-06T03:17:01;2.50;99.90
51500;DHT22;39101;53.478;6.158;2024-01-06T03:19:28;2.80;99.90
51500;DHT22;39101;53.478;6.158;2024-01-06T03:21:54;2.50;99.90
51500;DHT22;39101;53.478;6.158;2024-01-06T03:24:21;2.60;99.90
51500;DHT22;39101;53.478;6.158;2024-01-06T03:26:47;2.60;99.90
51500;DHT22;39101;53.478;6.158;2024-01-06T03:29:12;2.60;99.90
51500;DHT22;39101;53.478;6.158;2024-01-06T03:31:45;3.00;99.90
51500;DHT22;39101;53.478;6.158;2024-01-06T03:34:11;2.80;99.90
51500;DHT22;39101;53.478;6.158;2024-01-06T03:36:40;2.50;99.90
51500;DHT22;39101;53.478;6.158;2024-01-06T03:39:06;2.70;99.90
51500;DHT22;39101;53.478;6.158;2024-01-06T03:41:32;2.60;99.90
51500;DHT22;39101;53.478;6.158;2024-01-06T03:43:58;2.60;99.90
51500;DHT22;39101;53.478;6.158;2024-01-06T03:46:24;2.60;99.90
51500;DHT22;39101;53.478;6.158;2024-01-06T03:48:49;2.60;99.90
51500;DHT22;39101;53.478;6.158;2024-01-06T03:51:15;2.90;99.90
51500;DHT22;39101;53.478;6.158;2024-01-06T03:53:41;2.80;99.90
51500;DHT22;39101;53.478;6.158;2024-01-06T03:56:07;2.60;99.90
51500;DHT22;39101;53.478;6.158;2024-01-06T03:58:33;2.70;99.90
51500;DHT22;39101;53.478;6.158;2024-01-06T04:00:59;2.70;99.90
51500;DHT22;39101;53.478;6.158;2024-01-06T04:03:24;2.80;99.90
51500;DHT22;39101;53.478;6.158;2024-01-06T04:05:50;2.70;99.90
51500;DHT22;39101;53.478;6.158;2024-01-06T04:08:17;2.70;99.90
51500;DHT22;39101;53.478;6.158;2024-01-06T04:10:43;2.70;99.90
51500;DHT22;39101;53.478;6.158;2024-01-06T04:13:10;2.70;99.90
51500;DHT22;39101;53.478;6.158;2024-01-06T04:15:35;2.60;99.90
51500;DHT22;39101;53.478;6.158;2024-01-06T04:18:02;2.60;99.90
51500;DHT22;39101;53.478;6.158;2024-01-06T04:20:29;2.60;99.90
51500;DHT22;39101;53.478;6.158;2024-01-06T04:22:55;2.60;99.90
51500;DHT22;39101;53.478;6.158;2024-01-06T04:25:20;2.70;99.90
51500;DHT22;39101;53.478;6.158;2024-01-06T04:27:47;2.80;99.90
51500;DHT22;39101;53.478;6.158;2024-01-06T04:30:14;2.70;99.90
51500;DHT22;39101;53.478;6.158;2024-01-06T04:32:40;2.70;99.90
51500;DHT22;39101;53.478;6.158;2024-01-06T04:35:06;2.80;99.90
51500;DHT22;39101;53.478;6.158;2024-01-06T04:37:32;2.70;99.90
51500;DHT22;39101;53.478;6.158;2024-01-06T04:39:58;2.80;99.90
51500;DHT22;39101;53.478;6.158;2024-01-06T04:42:24;2.70;99.90
51500;DHT22;39101;53.478;6.158;2024-01-06T04:44:50;2.70;99.90
51500;DHT22;39101;53.478;6.158;2024-01-06T04:47:15;2.70;99.90
51500;DHT22;39101;53.478;6.158;2024-01-06T04:49:41;3.00;99.90
51500;DHT22;39101;53.478;6.158;2024-01-06T04:52:07;2.70;99.90
51500;DHT22;39101;53.478;6.158;2024-01-06T04:54:32;2.90;99.90
51500;DHT22;39101;53.478;6.158;2024-01-06T04:56:58;2.90;99.90
51500;DHT22;39101;53.478;6.158;2024-01-06T04:59:24;2.70;99.90
51500;DHT22;39101;53.478;6.158;2024-01-06T05:01:51;2.90;99.90
51500;DHT22;39101;53.478;6.158;2024-01-06T05:04:17;2.90;99.90
51500;DHT22;39101;53.478;6.158;2024-01-06T05:06:43;2.70;99.90
51500;DHT22;39101;53.478;6.158;2024-01-06T05:09:09;3.00;99.90
51500;DHT22;39101;53.478;6.158;2024-01-06T05:11:35;3.00;99.90
51500;DHT22;39101;53.478;6.158;2024-01-06T05:14:01;2.90;99.90
51500;DHT22;39101;53.478;6.158;2024-01-06T05:16:26;2.70;99.90
51500;DHT22;39101;53.478;6.158;2024-01-06T05:18:53;2.80;99.90
51500;DHT22;39101;53.478;6.158;2024-01-06T05:21:19;3.20;99.90
51500;DHT22;39101;53.478;6.158;2024-01-06T05:23:45;3.00;99.90
51500;DHT22;39101;53.478;6.158;2024-01-06T05:26:10;3.00;99.90
51500;DHT22;39101;53.478;6.158;2024-01-06T05:28:37;2.80;99.90
51500;DHT22;39101;53.478;6.158;2024-01-06T05:31:03;3.00;99.90
51500;DHT22;39101;53.478;6.158;2024-01-06T05:33:29;2.80;99.90
51500;DHT22;39101;53.478;6.158;2024-01-06T05:35:54;2.80;99.90
51500;DHT22;39101;53.478;6.158;2024-01-06T05:38:20;2.80;99.90
51500;DHT22;39101;53.478;6.158;2024-01-06T05:40:45;3.00;99.90
51500;DHT22;39101;53.478;6.158;2024-01-06T05:43:11;2.90;99.90
51500;DHT22;39101;53.478;6.158;2024-01-06T05:45:37;2.80;99.90
51500;DHT22;39101;53.478;6.158;2024-01-06T05:48:05;2.80;99.90
51500;DHT22;39101;53.478;6.158;2024-01-06T05:50:33;2.70;99.90
51500;DHT22;39101;53.478;6.158;2024-01-06T05:52:59;2.80;99.90
51500;DHT22;39101;53.478;6.158;2024-01-06T05:55:25;2.80;99.90
51500;DHT22;39101;53.478;6.158;2024-01-06T05:57:51;3.00;99.90
51500;DHT22;39101;53.478;6.158;2024-01-06T06:00:16;2.80;99.90
51500;DHT22;39101;53.478;6.158;2024-01-06T06:02:42;2.70;99.90
51500;DHT22;39101;53.478;6.158;2024-01-06T06:05:08;3.00;99.90
51500;DHT22;39101;53.478;6.158;2024-01-06T06:07:34;2.90;99.90
51500;DHT22;39101;53.478;6.158;2024-01-06T06:10:09;3.00;99.90
51500;DHT22;39101;53.478;6.158;2024-01-06T06:12:35;3.00;99.90
51500;DHT22;39101;53.478;6.158;2024-01-06T06:15:01;2.80;99.90
51500;DHT22;39101;53.478;6.158;2024-01-06T06:17:29;2.90;99.90
51500;DHT22;39101;53.478;6.158;2024-01-06T06:19:55;2.90;99.90
51500;DHT22;39101;53.478;6.158;2024-01-06T06:22:22;3.00;99.90
51500;DHT22;39101;53.478;6.158;2024-01-06T06:24:48;2.80;99.90
51500;DHT22;39101;53.478;6.158;2024-01-06T06:27:14;3.00;99.90
51500;DHT22;39101;53.478;6.158;2024-01-06T06:29:40;2.90;99.90
51500;DHT22;39101;53.478;6.158;2024-01-06T06:32:05;2.80;99.90
51500;DHT22;39101;53.478;6.158;2024-01-06T06:34:31;2.70;99.90
51500;DHT22;39101;53.478;6.158;2024-01-06T06:36:57;2.80;99.90
51500;DHT22;39101;53.478;6.158;2024-01-06T06:39:24;2.80;99.90
51500;DHT22;39101;53.478;6.158;2024-01-06T06:41:49;2.90;99.90
51500;DHT22;39101;53.478;6.158;2024-01-06T06:44:15;3.20;99.90
51500;DHT22;39101;53.478;6.158;2024-01-06T06:46:41;2.90;99.90
51500;DHT22;39101;53.478;6.158;2024-01-06T06:49:06;2.90;99.90
51500;DHT22;39101;53.478;6.158;2024-01-06T06:51:32;2.80;99.90
51500;DHT22;39101;53.478;6.158;2024-01-06T06:53:58;2.80;99.90
51500;DHT22;39101;53.478;6.158;2024-01-06T06:56:24;2.80;99.90
51500;DHT22;39101;53.478;6.158;2024-01-06T06:58:49;2.80;99.90
51500;DHT22;39101;53.478;6.158;2024-01-06T07:01:15;2.80;99.90
51500;DHT22;39101;53.478;6.158;2024-01-06T07:03:41;2.80;99.90
51500;DHT22;39101;53.478;6.158;2024-01-06T07:06:07;3.00;99.90
51500;DHT22;39101;53.478;6.158;2024-01-06T07:08:32;3.00;99.90
51500;DHT22;39101;53.478;6.158;2024-01-06T07:10:58;3.00;99.90
51500;DHT22;39101;53.478;6.158;2024-01-06T07:13:24;2.90;99.90
51500;DHT22;39101;53.478;6.158;2024-01-06T07:15:49;2.80;99.90
51500;DHT22;39101;53.478;6.158;2024-01-06T07:18:15;2.80;99.90
51500;DHT22;39101;53.478;6.158;2024-01-06T07:20:41;3.00;99.90
51500;DHT22;39101;53.478;6.158;2024-01-06T07:23:07;2.80;99.90
51500;DHT22;39101;53.478;6.158;2024-01-06T07:25:32;3.00;99.90
51500;DHT22;39101;53.478;6.158;2024-01-06T07:27:58;3.00;99.90
51500;DHT22;39101;53.478;6.158;2024-01-06T07:30:24;2.80;99.90
51500;DHT22;39101;53.478;6.158;2024-01-06T07:32:49;3.00;99.90
51500;DHT22;39101;53.478;6.158;2024-01-06T07:35:17;3.00;99.90
51500;DHT22;39101;53.478;6.158;2024-01-06T07:37:43;2.80;99.90
51500;DHT22;39101;53.478;6.158;2024-01-06T07:40:09;2.80;99.90
51500;DHT22;39101;53.478;6.158;2024-01-06T07:42:35;2.80;99.90
51500;DHT22;39101;53.478;6.158;2024-01-06T07:45:01;3.00;99.90
51500;DHT22;39101;53.478;6.158;2024-01-06T07:47:27;2.80;99.90
51500;DHT22;39101;53.478;6.158;2024-01-06T07:49:53;3.00;99.90
51500;DHT22;39101;53.478;6.158;2024-01-06T07:52:20;2.90;99.90
51500;DHT22;39101;53.478;6.158;2024-01-06T07:54:46;3.00;99.90
51500;DHT22;39101;53.478;6.158;2024-01-06T07:57:11;2.90;99.90
51500;DHT22;39101;53.478;6.158;2024-01-06T07:59:38;2.80;99.90
51500;DHT22;39101;53.478;6.158;2024-01-06T08:02:04;2.90;99.90
51500;DHT22;39101;53.478;6.158;2024-01-06T08:04:29;3.20;99.90
51500;DHT22;39101;53.478;6.158;2024-01-06T08:06:55;3.00;99.90
51500;DHT22;39101;53.478;6.158;2024-01-06T08:09:21;2.70;99.90
51500;DHT22;39101;53.478;6.158;2024-01-06T08:11:49;2.80;99.90
51500;DHT22;39101;53.478;6.158;2024-01-06T08:14:14;2.80;99.90
51500;DHT22;39101;53.478;6.158;2024-01-06T08:16:43;2.80;99.90
51500;DHT22;39101;53.478;6.158;2024-01-06T08:19:09;2.80;99.90
51500;DHT22;39101;53.478;6.158;2024-01-06T08:21:34;2.90;99.90
51500;DHT22;39101;53.478;6.158;2024-01-06T08:24:01;2.80;99.90
51500;DHT22;39101;53.478;6.158;2024-01-06T08:26:26;2.80;99.90
51500;DHT22;39101;53.478;6.158;2024-01-06T08:28:52;2.90;99.90
51500;DHT22;39101;53.478;6.158;2024-01-06T08:31:18;2.90;99.90
51500;DHT22;39101;53.478;6.158;2024-01-06T08:33:44;2.70;99.90
51500;DHT22;39101;53.478;6.158;2024-01-06T08:36:09;2.80;99.90
51500;DHT22;39101;53.478;6.158;2024-01-06T08:38:35;2.70;99.90
51500;DHT22;39101;53.478;6.158;2024-01-06T08:41:01;2.80;99.90
51500;DHT22;39101;53.478;6.158;2024-01-06T08:43:27;2.90;99.90
51500;DHT22;39101;53.478;6.158;2024-01-06T08:45:53;2.70;99.90
51500;DHT22;39101;53.478;6.158;2024-01-06T08:48:19;2.90;99.90
51500;DHT22;39101;53.478;6.158;2024-01-06T08:50:44;2.90;99.90
51500;DHT22;39101;53.478;6.158;2024-01-06T08:53:12;2.70;99.90
51500;DHT22;39101;53.478;6.158;2024-01-06T08:55:39;3.00;99.90
51500;DHT22;39101;53.478;6.158;2024-01-06T08:58:04;2.70;99.90
51500;DHT22;39101;53.478;6.158;2024-01-06T09:00:31;2.90;99.90
51500;DHT22;39101;53.478;6.158;2024-01-06T09:02:56;3.00;99.90
51500;DHT22;39101;53.478;6.158;2024-01-06T09:05:22;2.80;99.90
51500;DHT22;39101;53.478;6.158;2024-01-06T09:07:48;2.90;99.90
51500;DHT22;39101;53.478;6.158;2024-01-06T09:10:17;3.00;99.90
51500;DHT22;39101;53.478;6.158;2024-01-06T09:12:43;2.80;99.90
51500;DHT22;39101;53.478;6.158;2024-01-06T09:15:08;2.80;99.90
51500;DHT22;39101;53.478;6.158;2024-01-06T09:17:34;3.00;99.90
51500;DHT22;39101;53.478;6.158;2024-01-06T09:20:00;2.90;99.90
51500;DHT22;39101;53.478;6.158;2024-01-06T09:22:27;2.80;99.90
51500;DHT22;39101;53.478;6.158;2024-01-06T09:24:52;3.00;99.90
51500;DHT22;39101;53.478;6.158;2024-01-06T09:27:19;2.90;99.90
51500;DHT22;39101;53.478;6.158;2024-01-06T09:29:45;2.90;99.90
51500;DHT22;39101;53.478;6.158;2024-01-06T09:32:11;2.80;99.90
51500;DHT22;39101;53.478;6.158;2024-01-06T09:34:36;3.00;99.90
51500;DHT22;39101;53.478;6.158;2024-01-06T09:37:02;2.80;99.90
51500;DHT22;39101;53.478;6.158;2024-01-06T09:39:28;3.00;99.90
51500;DHT22;39101;53.478;6.158;2024-01-06T09:41:56;3.00;99.90
51500;DHT22;39101;53.478;6.158;2024-01-06T09:44:22;3.10;99.90
51500;DHT22;39101;53.478;6.158;2024-01-06T09:46:47;3.00;99.90
51500;DHT22;39101;53.478;6.158;2024-01-06T09:49:14;3.00;99.90
51500;DHT22;39101;53.478;6.158;2024-01-06T09:51:40;3.00;99.90
51500;DHT22;39101;53.478;6.158;2024-01-06T09:54:09;3.00;99.90
51500;DHT22;39101;53.478;6.158;2024-01-06T09:56:39;3.00;99.90
51500;DHT22;39101;53.478;6.158;2024-01-06T09:59:05;2.80;99.90
51500;DHT22;39101;53.478;6.158;2024-01-06T10:01:30;2.80;99.90
51500;DHT22;39101;53.478;6.158;2024-01-06T10:03:56;2.90;99.90
51500;DHT22;39101;53.478;6.158;2024-01-06T10:06:22;3.10;99.90
51500;DHT22;39101;53.478;6.158;2024-01-06T10:08:49;2.80;99.90
51500;DHT22;39101;53.478;6.158;2024-01-06T10:11:15;3.00;99.90
51500;DHT22;39101;53.478;6.158;2024-01-06T10:13:41;2.90;99.90
51500;DHT22;39101;53.478;6.158;2024-01-06T10:16:07;2.90;99.90
51500;DHT22;39101;53.478;6.158;2024-01-06T10:18:33;3.00;99.90
51500;DHT22;39101;53.478;6.158;2024-01-06T10:21:03;2.90;99.90
51500;DHT22;39101;53.478;6.158;2024-01-06T10:23:32;2.80;99.90
51500;DHT22;39101;53.478;6.158;2024-01-06T10:25:58;2.90;99.90
51500;DHT22;39101;53.478;6.158;2024-01-06T10:28:24;3.00;99.90
51500;DHT22;39101;53.478;6.158;2024-01-06T10:30:52;2.90;99.90
51500;DHT22;39101;53.478;6.158;2024-01-06T10:33:22;2.90;99.90
51500;DHT22;39101;53.478;6.158;2024-01-06T10:35:49;2.90;99.90
51500;DHT22;39101;53.478;6.158;2024-01-06T10:38:15;3.10;99.90
51500;DHT22;39101;53.478;6.158;2024-01-06T10:41:00;3.10;99.90
51500;DHT22;39101;53.478;6.158;2024-01-06T10:43:28;2.90;99.90
51500;DHT22;39101;53.478;6.158;2024-01-06T10:46:01;3.00;99.90
51500;DHT22;39101;53.478;6.158;2024-01-06T10:48:32;3.00;99.90
51500;DHT22;39101;53.478;6.158;2024-01-06T10:50:59;3.00;99.90
51500;DHT22;39101;53.478;6.158;2024-01-06T10:53:27;2.90;99.90
51500;DHT22;39101;53.478;6.158;2024-01-06T10:55:53;2.70;99.90
51500;DHT22;39101;53.478;6.158;2024-01-06T10:58:19;2.80;99.90
51500;DHT22;39101;53.478;6.158;2024-01-06T11:00:45;3.00;99.90
51500;DHT22;39101;53.478;6.158;2024-01-06T11:03:13;3.00;99.90
51500;DHT22;39101;53.478;6.158;2024-01-06T11:05:41;2.80;99.90
51500;DHT22;39101;53.478;6.158;2024-01-06T11:08:07;2.70;99.90
51500;DHT22;39101;53.478;6.158;2024-01-06T11:10:34;2.70;99.90
51500;DHT22;39101;53.478;6.158;2024-01-06T11:13:15;2.80;99.90
51500;DHT22;39101;53.478;6.158;2024-01-06T11:15:51;2.70;99.90
51500;DHT22;39101;53.478;6.158;2024-01-06T11:18:39;2.80;99.90
51500;DHT22;39101;53.478;6.158;2024-01-06T11:24:17;2.80;99.90
51500;DHT22;39101;53.478;6.158;2024-01-06T11:26:47;2.80;99.90
51500;DHT22;39101;53.478;6.158;2024-01-06T11:29:14;2.50;99.90
51500;DHT22;39101;53.478;6.158;2024-01-06T11:31:40;2.80;99.90
51500;DHT22;39101;53.478;6.158;2024-01-06T11:34:15;2.90;99.90
51500;DHT22;39101;53.478;6.158;2024-01-06T11:36:42;2.80;99.90
51500;DHT22;39101;53.478;6.158;2024-01-06T11:39:34;2.50;99.90
51500;DHT22;39101;53.478;6.158;2024-01-06T11:42:01;2.50;99.90
51500;DHT22;39101;53.478;6.158;2024-01-06T11:44:28;2.70;99.90
51500;DHT22;39101;53.478;6.158;2024-01-06T11:46:57;2.40;99.90
51500;DHT22;39101;53.478;6.158;2024-01-06T11:49:26;2.40;99.90
51500;DHT22;39101;53.478;6.158;2024-01-06T11:51:53;2.60;99.90
51500;DHT22;39101;53.478;6.158;2024-01-06T11:54:21;2.50;99.90
51500;DHT22;39101;53.478;6.158;2024-01-06T11:56:46;2.60;99.90
51500;DHT22;39101;53.478;6.158;2024-01-06T11:59:12;2.50;99.90
51500;DHT22;39101;53.478;6.158;2024-01-06T12:01:38;2.50;99.90
51500;DHT22;39101;53.478;6.158;2024-01-06T12:04:05;2.60;99.90
51500;DHT22;39101;53.478;6.158;2024-01-06T12:06:31;2.40;99.90
51500;DHT22;39101;53.478;6.158;2024-01-06T12:09:10;2.30;99.90
51500;DHT22;39101;53.478;6.158;2024-01-06T12:11:39;2.50;99.90
51500;DHT22;39101;53.478;6.158;2024-01-06T12:14:05;2.40;99.90
51500;DHT22;39101;53.478;6.158;2024-01-06T12:16:32;2.30;99.90
51500;DHT22;39101;53.478;6.158;2024-01-06T12:18:58;2.20;99.90
51500;DHT22;39101;53.478;6.158;2024-01-06T12:21:29;2.40;99.90
51500;DHT22;39101;53.478;6.158;2024-01-06T12:24:16;2.50;99.90
51500;DHT22;39101;53.478;6.158;2024-01-06T12:26:50;2.20;99.90
51500;DHT22;39101;53.478;6.158;2024-01-06T12:29:17;2.40;99.90
51500;DHT22;39101;53.478;6.158;2024-01-06T12:31:43;2.40;99.90
51500;DHT22;39101;53.478;6.158;2024-01-06T12:34:12;2.30;99.90
51500;DHT22;39101;53.478;6.158;2024-01-06T12:36:39;2.30;99.90
51500;DHT22;39101;53.478;6.158;2024-01-06T12:39:05;2.10;99.90
51500;DHT22;39101;53.478;6.158;2024-01-06T12:41:31;2.20;99.90
51500;DHT22;39101;53.478;6.158;2024-01-06T12:44:00;2.20;99.90
51500;DHT22;39101;53.478;6.158;2024-01-06T12:46:27;2.30;99.90
51500;DHT22;39101;53.478;6.158;2024-01-06T12:48:52;2.30;99.90
51500;DHT22;39101;53.478;6.158;2024-01-06T12:51:18;2.20;99.90
51500;DHT22;39101;53.478;6.158;2024-01-06T12:53:44;2.10;99.90
51500;DHT22;39101;53.478;6.158;2024-01-06T12:56:10;2.20;99.90
51500;DHT22;39101;53.478;6.158;2024-01-06T12:58:35;2.30;99.90
51500;DHT22;39101;53.478;6.158;2024-01-06T13:01:01;2.20;99.90
51500;DHT22;39101;53.478;6.158;2024-01-06T13:03:28;2.30;99.90
51500;DHT22;39101;53.478;6.158;2024-01-06T13:05:54;2.00;99.90
51500;DHT22;39101;53.478;6.158;2024-01-06T13:08:20;2.10;99.90
51500;DHT22;39101;53.478;6.158;2024-01-06T13:10:46;2.10;99.90
51500;DHT22;39101;53.478;6.158;2024-01-06T13:13:12;2.00;99.90
51500;DHT22;39101;53.478;6.158;2024-01-06T13:15:37;2.20;99.90
51500;DHT22;39101;53.478;6.158;2024-01-06T13:18:03;2.20;99.90
51500;DHT22;39101;53.478;6.158;2024-01-06T13:20:29;2.20;99.90
51500;DHT22;39101;53.478;6.158;2024-01-06T13:22:55;2.20;99.90
51500;DHT22;39101;53.478;6.158;2024-01-06T13:25:20;1.90;99.90
51500;DHT22;39101;53.478;6.158;2024-01-06T13:27:47;2.20;99.90
51500;DHT22;39101;53.478;6.158;2024-01-06T13:30:13;1.90;99.90
51500;DHT22;39101;53.478;6.158;2024-01-06T13:32:40;1.90;99.90
51500;DHT22;39101;53.478;6.158;2024-01-06T13:35:06;2.00;99.90
51500;DHT22;39101;53.478;6.158;2024-01-06T13:37:32;2.00;99.90
51500;DHT22;39101;53.478;6.158;2024-01-06T13:39:58;2.20;99.90
51500;DHT22;39101;53.478;6.158;2024-01-06T13:42:24;2.20;99.90
51500;DHT22;39101;53.478;6.158;2024-01-06T13:44:50;2.10;99.90
51500;DHT22;39101;53.478;6.158;2024-01-06T13:47:15;1.80;99.90
51500;DHT22;39101;53.478;6.158;2024-01-06T13:49:41;2.00;99.90
51500;DHT22;39101;53.478;6.158;2024-01-06T13:52:07;1.90;99.90
51500;DHT22;39101;53.478;6.158;2024-01-06T13:54:36;1.80;99.90
51500;DHT22;39101;53.478;6.158;2024-01-06T13:57:02;1.80;99.90
51500;DHT22;39101;53.478;6.158;2024-01-06T13:59:28;2.00;99.90
51500;DHT22;39101;53.478;6.158;2024-01-06T14:01:54;1.90;99.90
51500;DHT22;39101;53.478;6.158;2024-01-06T14:04:20;2.10;99.90
51500;DHT22;39101;53.478;6.158;2024-01-06T14:06:46;2.20;99.90
51500;DHT22;39101;53.478;6.158;2024-01-06T14:09:13;1.80;99.90
51500;DHT22;39101;53.478;6.158;2024-01-06T14:11:39;2.00;99.90
51500;DHT22;39101;53.478;6.158;2024-01-06T14:14:05;2.10;99.90
51500;DHT22;39101;53.478;6.158;2024-01-06T14:16:30;1.90;99.90
51500;DHT22;39101;53.478;6.158;2024-01-06T14:18:56;1.90;99.90
51500;DHT22;39101;53.478;6.158;2024-01-06T14:21:22;1.70;99.90
51500;DHT22;39101;53.478;6.158;2024-01-06T14:23:48;1.80;99.90
51500;DHT22;39101;53.478;6.158;2024-01-06T14:26:18;2.00;99.90
51500;DHT22;39101;53.478;6.158;2024-01-06T14:28:46;1.80;99.90
51500;DHT22;39101;53.478;6.158;2024-01-06T14:31:11;1.80;99.90
51500;DHT22;39101;53.478;6.158;2024-01-06T14:33:37;2.00;99.90
51500;DHT22;39101;53.478;6.158;2024-01-06T14:36:03;1.90;99.90
51500;DHT22;39101;53.478;6.158;2024-01-06T14:38:29;1.60;99.90
51500;DHT22;39101;53.478;6.158;2024-01-06T14:40:54;2.00;99.90
51500;DHT22;39101;53.478;6.158;2024-01-06T14:43:20;1.80;99.90
51500;DHT22;39101;53.478;6.158;2024-01-06T14:45:47;1.90;99.90
51500;DHT22;39101;53.478;6.158;2024-01-06T14:48:13;1.90;99.90
51500;DHT22;39101;53.478;6.158;2024-01-06T14:50:38;2.00;99.90
51500;DHT22;39101;53.478;6.158;2024-01-06T14:53:04;1.70;99.90
51500;DHT22;39101;53.478;6.158;2024-01-06T14:55:30;1.80;99.90
51500;DHT22;39101;53.478;6.158;2024-01-06T14:57:55;1.60;99.90
51500;DHT22;39101;53.478;6.158;2024-01-06T15:00:21;1.50;99.90
51500;DHT22;39101;53.478;6.158;2024-01-06T15:02:47;1.70;99.90
51500;DHT22;39101;53.478;6.158;2024-01-06T15:05:12;1.50;99.90
51500;DHT22;39101;53.478;6.158;2024-01-06T15:07:38;1.80;99.90
51500;DHT22;39101;53.478;6.158;2024-01-06T15:10:04;1.70;99.90
51500;DHT22;39101;53.478;6.158;2024-01-06T15:12:31;1.80;99.90
51500;DHT22;39101;53.478;6.158;2024-01-06T15:14:57;1.50;99.90
51500;DHT22;39101;53.478;6.158;2024-01-06T15:17:24;2.00;99.90
51500;DHT22;39101;53.478;6.158;2024-01-06T15:19:49;1.60;99.90
51500;DHT22;39101;53.478;6.158;2024-01-06T15:22:16;1.50;99.90
51500;DHT22;39101;53.478;6.158;2024-01-06T15:24:42;1.80;99.90
51500;DHT22;39101;53.478;6.158;2024-01-06T15:27:13;1.70;99.90
51500;DHT22;39101;53.478;6.158;2024-01-06T15:29:38;1.60;99.90
51500;DHT22;39101;53.478;6.158;2024-01-06T15:32:04;1.40;99.90
51500;DHT22;39101;53.478;6.158;2024-01-06T15:34:30;1.60;99.90
51500;DHT22;39101;53.478;6.158;2024-01-06T15:36:56;1.50;99.90
51500;DHT22;39101;53.478;6.158;2024-01-06T15:39:21;1.30;99.90
51500;DHT22;39101;53.478;6.158;2024-01-06T15:41:47;1.30;99.90
51500;DHT22;39101;53.478;6.158;2024-01-06T15:44:13;1.50;99.90